Facebook, Inc. (NASDAQ:FB)

CAPS Rating: 2 out of 5

Results 1 - 99 of 2805 : 1 2 3 4 5 6 7 8 9 10 Next »
Top
Pick
Member Name Member
Rating
Start
Date
Call Time
Frame
Start
Price
Stock
Gain
Index
Gain
Score Commentary
pmello78 61.11 1/27/2015 Outperform 5Y $76.36 -0.77% -0.63% -0.15 0 Comment
TheCrazy1 58.02 1/27/2015 Outperform 1Y $75.99 -0.28% -0.35% +0.07 0 Comment
Tempeste49 61.87 1/27/2015 Outperform 3Y $75.99 -0.28% -0.35% +0.07 0 Comment
eslerblake 37.19 1/26/2015 Outperform 3Y $77.98 -2.83% -0.96% -1.87 0 Comment
marklight < 20 1/26/2015 Outperform 5Y $77.98 -2.83% -0.96% -1.87 1 Comment
judyka < 20 1/26/2015 Outperform 5Y $77.98 -2.83% -0.96% -1.87 0 Comment
ChristoKeller 56.72 1/26/2015 Underperform 3M $77.98 -2.83% -0.96% +1.87 1 Comment
optioncoach 98.47 1/23/2015 Outperform 1Y $77.91 -2.75% -1.37% -1.38 1 Comment
HDTVBG < 20 1/23/2015 Underperform 3W $77.65 -2.42% -1.48% +0.94 0 Comment
goateeoffury < 20 1/23/2015 Outperform 5Y $77.65 -2.42% -1.48% -0.94 1 Comment
Frankydontfailme 28.42 1/23/2015 Outperform 5Y $77.65 -2.42% -1.48% -0.94 0 Comment
hqsong < 20 1/23/2015 Outperform 5Y $77.65 -2.42% -1.48% -0.94 0 Comment
pacinifrador 53.82 1/23/2015 Underperform 5Y $77.65 -2.42% -1.48% +0.94 0 Comment
PassDaRice2 87.01 1/22/2015 Outperform 5Y $77.64 -2.40% -1.64% -0.76 0 Comment
Manny3000 < 20 1/22/2015 Outperform 5Y $77.17 -1.81% -0.61% -1.20 1 Comment
slaxner 38.44 1/22/2015 Outperform 5Y $77.17 -1.81% -0.61% -1.20 0 Comment
jiggles55 40.52 1/22/2015 Outperform 5Y $77.17 -1.81% -0.61% -1.20 0 Comment
Sharghi 54.26 1/20/2015 Outperform 5Y $76.05 -0.37% +0.79% -1.16 0 Comment
rickmacchiarulo < 20 1/20/2015 Outperform 1Y $75.75 +0.03% +0.76% -0.73 0 Comment
zgli98 < 20 1/20/2015 Outperform 1Y $74.91 +1.15% +0.94% +0.21 0 Comment
teufelhunden62 99.10 1/20/2015 Outperform 5Y $75.72 +0.07% +0.17% -0.10 0 Comment
kankead 88.92 1/20/2015 Outperform 1Y $75.72 +0.07% +0.17% -0.10 0 Comment
Irishone < 20 1/20/2015 Outperform 3Y $75.72 +0.07% +0.17% -0.10 0 Comment
manish09051977 68.17 1/20/2015 Outperform 5Y $75.72 +0.07% +0.17% -0.10 0 Comment
Pistoleer 77.04 10/4/2012 1/17/2015 Outperform NS $22.32 +239.47% +39.21% +200.27 0 Comment
5198 34.81 1/16/2015 Outperform 5Y $75.04 +0.98% +1.15% -0.17 0 Comment
EconArmour21 66.86 1/15/2015 Outperform 5Y $73.86 +2.59% +1.59% +1.00 0 Comment
7sins 28.69 1/15/2015 Underperform 5Y $74.36 +1.90% +1.47% -0.42 0 Comment
csmorgan < 20 1/15/2015 Outperform 1Y $74.50 +1.70% +1.54% +0.16 0 Comment
jiltin 27.34 1/15/2015 Underperform 5Y $75.31 +0.61% +0.91% +0.30 0 Comment
Sword 53.78 1/15/2015 Outperform 5Y $76.40 -0.82% +0.55% -1.38 0 Comment
TMFPhillyDot 37.61 1/15/2015 Outperform 5Y $76.40 -0.82% +0.55% -1.38 0 Comment
lucdewailly 85.50 1/15/2015 Outperform 5Y $76.40 -0.82% +0.55% -1.38 0 Comment
spitfire1980fan 56.53 1/14/2015 Outperform 5Y $76.42 -0.85% +1.55% -2.40 0 Comment
Firstdawg 51.66 1/14/2015 Outperform 5Y $76.42 -0.85% +1.55% -2.40 0 Comment
DogNuts < 20 1/13/2015 Outperform 5Y $76.58 -1.06% +0.54% -1.60 0 Comment
garibaldigwg 28.74 1/13/2015 Outperform 5Y $75.98 -0.28% +0.76% -1.04 1 Comment
TheBuckeyeGary < 20 1/13/2015 Outperform 5Y $75.98 -0.28% +0.76% -1.04 1 Comment
reidwolski 63.71 1/13/2015 Underperform 5Y $77.23 -1.89% -0.68% +1.21 0 Comment
wpnschief 51.20 1/12/2015 Outperform 5Y $77.84 -2.66% -0.82% -1.84 0 Comment
steopia < 20 1/12/2015 Underperform 5Y $77.84 -2.66% -0.82% +1.84 3 Comments
mkyorai 85.84 1/12/2015 Outperform 5Y $77.84 -2.66% -0.82% -1.84 0 Comment
rrellihen 56.33 1/12/2015 Outperform 5Y $77.29 -1.97% -0.24% -1.73 0 Comment
flameinvests < 20 1/9/2015 Outperform 5Y $78.20 -3.11% -1.77% -1.33 0 Comment
aldwords2015 69.70 1/9/2015 Outperform 5Y $78.20 -3.11% -1.77% -1.33 0 Comment
jille101 67.91 1/8/2015 Outperform 5Y $78.08 -2.96% -1.58% -1.38 0 Comment
8togo 56.96 1/8/2015 Outperform 5Y $78.10 -2.98% -1.57% -1.42 0 Comment
sarge18 64.08 1/8/2015 Outperform 1Y $78.00 -2.86% -1.62% -1.24 1 Comment
sjinvestor 44.25 1/8/2015 Outperform 5Y $78.00 -2.86% -1.50% -1.36 1 Comment
fbona4 < 20 1/7/2015 Outperform 5Y $76.47 -0.92% +0.25% -1.17 0 Comment
cstevens21 < 20 1/7/2015 Outperform 1Y $76.76 -1.29% +0.66% -1.95 1 Comment
judgenaxel 95.88 1/6/2015 Outperform 5Y $77.23 -1.89% +0.32% -2.21 0 Comment
foolerhoff 60.49 1/6/2015 Outperform 5Y $77.23 -1.89% +0.32% -2.21 0 Comment
doughseed2014 32.19 1/5/2015 Outperform 5Y $77.98 -2.83% -0.70% -2.13 0 Comment
abitare 44.38 1/5/2015 Underperform 5Y $77.98 -2.83% -0.70% +2.13 0 Comment
hewild1 < 20 1/5/2015 Outperform 5Y $77.98 -2.83% -0.70% -2.13 0 Comment
Macroman26 31.32 1/5/2015 Outperform 5Y $77.98 -2.83% -0.70% -2.13 0 Comment
Gregmaxfield 56.04 1/2/2015 Outperform 5Y $78.58 -3.58% -1.76% -1.81 0 Comment
Deepblue22 44.91 1/2/2015 Outperform 5Y $78.58 -3.58% -1.76% -1.81 0 Comment
cwbaker3 61.25 12/31/2014 Underperform 1Y $79.57 -4.77% -2.49% +2.28 0 Comment
Tangoko < 20 12/31/2014 Outperform 3Y $78.97 -4.05% -2.41% -1.65 0 Comment
TheDufer 50.11 12/31/2014 Outperform 3M $79.54 -4.74% -2.52% -2.22 0 Comment
AdirondackFund < 20 12/30/2014 Underperform NS $79.26 -4.40% -2.50% +1.90 0 Comment
Hawkeye1996 92.26 12/30/2014 Outperform 3Y $79.17 -4.30% -2.44% -1.86 0 Comment
gettinthatmoney 32.37 12/30/2014 Outperform 5Y $79.54 -4.74% -2.50% -2.24 0 Comment
2thetop1 43.83 12/30/2014 Underperform 1Y $80.46 -5.83% -2.66% +3.16 0 Comment
jondukes 62.93 12/29/2014 Outperform 5Y $80.49 -5.86% -2.63% -3.23 0 Comment
trapper7 < 20 12/29/2014 Outperform 3Y $80.49 -5.86% -2.63% -3.23 0 Comment
lbjack < 20 12/29/2014 Outperform 5Y $80.49 -5.86% -2.63% -3.23 1 Comment
eksummers620 65.91 12/26/2014 Outperform 1Y $81.24 -6.73% -2.86% -3.88 1 Comment
ResedaCox 59.91 12/26/2014 Outperform 5Y $81.02 -6.48% -2.67% -3.81 0 Comment
SwiftTuttle 72.75 12/24/2014 Outperform 5Y $81.12 -6.60% -2.62% -3.97 0 Comment
StockWizerd 46.83 12/24/2014 Outperform 1Y $81.03 -6.49% -2.54% -3.95 0 Comment
BioForcePicks1 92.06 12/23/2014 Underperform 5Y $80.72 -6.13% -2.51% +3.62 0 Comment
poohtummy 27.79 12/23/2014 Outperform 5Y $82.02 -7.62% -2.61% -5.01 0 Comment
joshpwhalen < 20 12/22/2014 Outperform 5Y $81.62 -7.17% -1.99% -5.18 0 Comment
SemiFatMike 53.64 12/22/2014 Outperform 5Y $80.08 -5.38% -1.94% -3.44 0 Comment
funcioneitor 52.72 12/22/2014 Outperform 5Y $80.08 -5.38% -1.94% -3.44 0 Comment
wowdwarf2 < 20 12/19/2014 Outperform 3Y $79.68 -4.91% -1.75% -3.16 0 Comment
Swhittier < 20 12/19/2014 Outperform 5Y $78.75 -3.78% -1.79% -2.00 0 Comment
dreamingofpowder < 20 12/19/2014 Outperform 5Y $78.75 -3.78% -1.79% -2.00 0 Comment
CaptFoolDawg 36.19 12/18/2014 Outperform 5Y $78.12 -3.01% -1.30% -1.71 0 Comment
Dracula 47.66 12/18/2014 Outperform 5Y $77.97 -2.83% -1.20% -1.62 0 Comment
brightsideLP 93.82 12/18/2014 Outperform 3M $78.17 -3.07% -1.21% -1.86 0 Comment
GazzaBlake 72.23 12/18/2014 Outperform 5Y $76.89 -1.46% -0.98% -0.48 0 Comment
Gokustoner 20.05 12/17/2014 Outperform 1Y $75.22 +0.73% +1.32% -0.59 0 Comment
RoyRamirez99 48.07 12/16/2014 Outperform 5Y $74.85 +1.23% +2.22% -0.99 0 Comment
t0bes < 20 12/16/2014 Outperform 5Y $75.92 -0.20% +1.31% -1.51 0 Comment
VicthebrickV 55.74 12/16/2014 Outperform 5Y $76.37 -0.79% +1.98% -2.76 0 Comment
This player feels very strongly about this pick and has marked it a Top Pick. Top Picks do not affect a player’s score. 25deltaskew 71.67 12/16/2014 Underperform 5Y $76.19 -0.55% +2.09% +2.65 0 Comment
SEFREA 60.86 12/15/2014 Outperform 5Y $78.46 -3.43% +0.38% -3.80 0 Comment
This player feels very strongly about this pick and has marked it a Top Pick. Top Picks do not affect a player’s score. marilyn66 65.29 12/15/2014 Outperform 5Y $78.46 -3.43% +0.38% -3.80 0 Comment
Marienbad 70.10 12/15/2014 Outperform 5Y $78.46 -3.43% +0.38% -3.80 0 Comment
sublimeinvestor 42.11 12/11/2014 Outperform 5Y $78.38 -3.33% -1.38% -1.95 0 Comment
Plasmidologist 93.24 12/11/2014 Outperform 5Y $78.39 -3.34% -1.47% -1.87 0 Comment
jt225t 82.07 12/11/2014 Outperform 1Y $78.23 -3.15% -1.60% -1.55 0 Comment
TMFBWItime 99.39 12/11/2014 Underperform 5Y $76.52 -0.98% -0.56% +0.42 0 Comment
gkratoc1 99.10 12/9/2014 Outperform 5Y $75.20 +0.76% -0.80% +1.56 0 Comment
Miketmah 55.27 12/8/2014 Outperform 3Y $76.79 -1.33% -2.51% +1.18 0 Comment

Featured Broker Partners


Advertisement